Time;durP1;ratioP1;P1;durP2;ratioP2;P2;SDS_P1;SDS_P2;PMS_P1;PMS_P2;Temp;Humidity;BMP_temperature;BMP_pressure;BME280_temperature;BME280_humidity;BME280_pressure;Samples;Min_cycle;Max_cycle;Signal;HPM_P1;HPM_P2
2021/11/20 00:01:54;;;;;;;36.30;13.77;;;;;;;;;;5099714;28;20530;-70
2021/11/20 00:04:23;;;;;;;31.87;14.33;;;;;;;;;;5099578;28;20446;-70
2021/11/20 00:06:52;;;;;;;41.13;17.93;;;;;;;;;;5099766;28;20540;-70
2021/11/20 00:09:22;;;;;;;36.97;18.33;;;;;;;;;;5098039;28;20471;-70
2021/11/20 00:11:51;;;;;;;44.40;21.53;;;;;;;;;;5088115;28;20444;-70
2021/11/20 00:14:19;;;;;;;40.97;22.53;;;;;;;;;;5099011;28;20465;-70
2021/11/20 00:16:48;;;;;;;45.70;22.57;;;;;;;;;;5099506;28;20505;-70
2021/11/20 00:19:18;;;;;;;40.03;20.70;;;;;;;;;;5099234;28;20459;-70
2021/11/20 00:21:48;;;;;;;44.00;20.77;;;;;;;;;;5099165;28;20443;-70
2021/11/20 00:24:17;;;;;;;36.90;18.50;;;;;;;;;;5099399;28;20440;-70
2021/11/20 00:26:46;;;;;;;45.57;19.77;;;;;;;;;;5099519;28;20446;-70
2021/11/20 00:29:26;;;;;;;36.10;17.93;;;;;;;;;;5098979;28;20455;-69
2021/11/20 00:31:56;;;;;;;40.63;16.53;;;;;;;;;;5099170;28;20522;-69
2021/11/20 00:34:31;;;;;;;36.80;15.93;;;;;;;;;;5099050;28;20934;-69
2021/11/20 00:36:59;;;;;;;26.67;13.03;;;;;;;;;;5098726;28;20984;-69
2021/11/20 00:39:31;;;;;;;29.10;12.10;;;;;;;;;;5098968;28;20461;-69
2021/11/20 00:41:59;;;;;;;27.40;13.53;;;;;;;;;;5098980;28;20452;-70
2021/11/20 00:44:28;;;;;;;28.57;12.00;;;;;;;;;;5098286;28;20481;-70
2021/11/20 00:46:56;;;;;;;31.27;11.03;;;;;;;;;;5099005;28;20443;-69
2021/11/20 00:49:26;;;;;;;27.37;11.73;;;;;;;;;;5098804;28;20466;-70
2021/11/20 00:51:55;;;;;;;23.17;10.87;;;;;;;;;;5097701;28;20482;-70
2021/11/20 00:54:24;;;;;;;30.77;11.97;;;;;;;;;;5098371;28;20482;-69
2021/11/20 00:56:52;;;;;;;25.67;11.10;;;;;;;;;;5098459;28;20842;-70
2021/11/20 00:59:20;;;;;;;26.27;11.40;;;;;;;;;;5098167;28;20485;-69
2021/11/20 01:01:49;;;;;;;30.63;12.30;;;;;;;;;;5098726;28;20519;-69
2021/11/20 01:04:18;;;;;;;26.50;11.73;;;;;;;;;;5098723;28;21009;-69
2021/11/20 01:06:48;;;;;;;23.90;10.63;;;;;;;;;;5098587;28;20446;-69
2021/11/20 01:09:17;;;;;;;23.93;10.87;;;;;;;;;;5098496;28;20502;-69
2021/11/20 01:11:46;;;;;;;27.10;10.00;;;;;;;;;;5098400;28;20526;-69
2021/11/20 01:14:15;;;;;;;21.70;9.90;;;;;;;;;;5098192;28;20511;-70
2021/11/20 01:16:45;;;;;;;22.30;10.87;;;;;;;;;;5098093;28;20982;-69
2021/11/20 01:19:13;;;;;;;30.20;12.30;;;;;;;;;;5098477;28;20470;-69
2021/11/20 01:21:42;;;;;;;25.43;9.87;;;;;;;;;;5098073;28;20443;-70
2021/11/20 01:24:11;;;;;;;25.67;10.70;;;;;;;;;;5098376;28;20514;-70
2021/11/20 01:26:40;;;;;;;28.37;10.10;;;;;;;;;;5098139;28;20446;-70
2021/11/20 01:29:09;;;;;;;29.67;11.30;;;;;;;;;;5097803;28;20456;-69
2021/11/20 01:31:39;;;;;;;25.13;10.43;;;;;;;;;;5098207;28;20479;-70
2021/11/20 01:34:07;;;;;;;22.80;10.57;;;;;;;;;;5098190;28;20444;-70
2021/11/20 01:36:36;;;;;;;28.03;10.77;;;;;;;;;;5097891;28;20450;-70
2021/11/20 01:39:06;;;;;;;23.03;10.47;;;;;;;;;;5097739;28;20470;-70
2021/11/20 01:41:35;;;;;;;23.87;10.27;;;;;;;;;;5098012;28;20450;-70
2021/11/20 01:44:09;;;;;;;23.20;10.73;;;;;;;;;;5097560;28;20506;-70
2021/11/20 01:46:37;;;;;;;18.73;9.27;;;;;;;;;;5098022;28;20941;-70
2021/11/20 01:49:09;;;;;;;27.13;10.40;;;;;;;;;;5097736;28;20466;-70
2021/11/20 01:51:37;;;;;;;22.67;10.77;;;;;;;;;;5092421;28;20538;-69
2021/11/20 01:54:09;;;;;;;21.83;10.83;;;;;;;;;;5093109;28;20457;-70
2021/11/20 01:56:40;;;;;;;28.23;10.97;;;;;;;;;;5097595;28;20453;-69
2021/11/20 01:59:12;;;;;;;25.17;9.10;;;;;;;;;;5097235;28;20550;-70
2021/11/20 02:01:43;;;;;;;25.43;9.83;;;;;;;;;;5097689;28;20450;-70
2021/11/20 02:04:14;;;;;;;26.07;10.17;;;;;;;;;;5097374;28;20439;-70
2021/11/20 02:06:44;;;;;;;28.00;11.90;;;;;;;;;;5097528;28;20454;-70
2021/11/20 02:09:14;;;;;;;25.33;10.47;;;;;;;;;;5097458;28;20468;-70
2021/11/20 02:11:45;;;;;;;23.67;10.47;;;;;;;;;;5091448;28;20522;-70
2021/11/20 02:14:14;;;;;;;24.47;10.33;;;;;;;;;;5097251;28;20448;-70
2021/11/20 02:16:44;;;;;;;25.27;11.10;;;;;;;;;;5097740;28;20450;-70
2021/11/20 02:19:14;;;;;;;21.73;10.43;;;;;;;;;;5097569;28;20472;-69
2021/11/20 02:21:49;;;;;;;25.67;11.17;;;;;;;;;;5097523;28;20458;-69
2021/11/20 02:24:17;;;;;;;23.30;9.53;;;;;;;;;;5097396;28;20934;-69
2021/11/20 02:26:45;;;;;;;23.33;9.73;;;;;;;;;;5097451;28;20443;-70
2021/11/20 02:29:15;;;;;;;28.50;11.03;;;;;;;;;;5097095;28;20451;-69
2021/11/20 02:31:45;;;;;;;25.43;10.93;;;;;;;;;;5097547;28;20443;-69
2021/11/20 02:34:14;;;;;;;23.53;11.43;;;;;;;;;;5097403;28;20451;-69
2021/11/20 02:36:42;;;;;;;23.57;12.17;;;;;;;;;;5097285;28;20458;-69
2021/11/20 02:39:13;;;;;;;28.27;10.67;;;;;;;;;;5097312;28;20493;-69
2021/11/20 02:41:44;;;;;;;25.67;11.03;;;;;;;;;;5084155;28;20444;-69
2021/11/20 02:44:13;;;;;;;24.67;10.97;;;;;;;;;;5096583;28;20475;-69
2021/11/20 02:46:42;;;;;;;27.30;10.90;;;;;;;;;;5097447;28;20443;-69
2021/11/20 02:49:12;;;;;;;26.67;10.80;;;;;;;;;;5097088;28;20468;-69
2021/11/20 02:51:41;;;;;;;26.80;11.27;;;;;;;;;;5097506;28;20436;-70
2021/11/20 02:54:10;;;;;;;25.43;11.00;;;;;;;;;;5097391;28;20535;-69
2021/11/20 02:56:40;;;;;;;23.50;11.17;;;;;;;;;;5097289;28;20443;-69
2021/11/20 02:59:08;;;;;;;23.43;11.10;;;;;;;;;;5096770;28;20487;-68
2021/11/20 03:01:37;;;;;;;20.83;11.43;;;;;;;;;;5097283;28;20439;-68
2021/11/20 03:04:05;;;;;;;23.47;11.00;;;;;;;;;;5096657;28;20447;-68
2021/11/20 03:06:35;;;;;;;23.83;10.93;;;;;;;;;;5097038;28;20450;-68
2021/11/20 03:09:04;;;;;;;21.93;10.80;;;;;;;;;;5097182;28;20465;-68
2021/11/20 03:11:32;;;;;;;20.80;10.60;;;;;;;;;;5086906;28;20456;-69
2021/11/20 03:14:04;;;;;;;27.20;12.27;;;;;;;;;;5096757;28;20534;-68
2021/11/20 03:16:34;;;;;;;25.03;11.47;;;;;;;;;;5099948;28;20443;-68
2021/11/20 03:19:03;;;;;;;29.63;11.90;;;;;;;;;;5100182;28;20482;-69
2021/11/20 03:21:31;;;;;;;24.17;11.60;;;;;;;;;;5100349;28;20990;-69
2021/11/20 03:24:02;;;;;;;24.80;11.50;;;;;;;;;;5100614;28;20955;-69
2021/11/20 03:26:30;;;;;;;26.77;11.50;;;;;;;;;;5100579;28;20439;-69
2021/11/20 03:28:58;;;;;;;22.20;10.73;;;;;;;;;;5100117;28;20452;-69
2021/11/20 03:31:26;;;;;;;30.87;12.33;;;;;;;;;;5100532;28;20439;-68
2021/11/20 03:33:54;;;;;;;25.03;12.10;;;;;;;;;;5100331;28;20530;-68
2021/11/20 03:36:22;;;;;;;28.40;11.30;;;;;;;;;;5100163;28;20435;-68
2021/11/20 03:38:50;;;;;;;21.90;12.00;;;;;;;;;;5100101;28;20566;-68
2021/11/20 03:41:19;;;;;;;25.57;10.67;;;;;;;;;;5100242;28;20440;-69
2021/11/20 03:43:47;;;;;;;26.50;11.07;;;;;;;;;;5099687;28;20482;-69
2021/11/20 03:46:15;;;;;;;26.00;11.77;;;;;;;;;;5099938;28;20962;-69
2021/11/20 03:48:43;;;;;;;26.80;12.47;;;;;;;;;;5100178;28;20463;-68
2021/11/20 03:51:11;;;;;;;27.23;11.00;;;;;;;;;;5099912;28;20450;-69
2021/11/20 03:53:39;;;;;;;27.63;11.77;;;;;;;;;;5089172;28;20455;-68
2021/11/20 03:56:06;;;;;;;25.10;11.63;;;;;;;;;;5099891;28;20447;-69
2021/11/20 03:58:37;;;;;;;29.40;11.83;;;;;;;;;;5099622;28;21002;-69
2021/11/20 04:01:06;;;;;;;23.30;11.47;;;;;;;;;;5099745;28;20439;-69
2021/11/20 04:03:35;;;;;;;29.80;11.57;;;;;;;;;;5099867;28;20447;-69
2021/11/20 04:06:03;;;;;;;25.10;10.63;;;;;;;;;;5099472;28;20442;-68
2021/11/20 04:08:31;;;;;;;27.13;13.13;;;;;;;;;;5099284;28;20463;-68
2021/11/20 04:10:59;;;;;;;28.33;12.37;;;;;;;;;;5096475;28;20458;-69
2021/11/20 04:13:27;;;;;;;26.87;11.80;;;;;;;;;;5099157;28;20447;-68
2021/11/20 04:15:56;;;;;;;24.07;11.53;;;;;;;;;;5099616;28;20531;-69
2021/11/20 04:18:24;;;;;;;26.83;10.73;;;;;;;;;;5099096;28;20489;-68
2021/11/20 04:20:52;;;;;;;25.43;11.67;;;;;;;;;;5099174;28;20903;-69
2021/11/20 04:23:21;;;;;;;26.50;11.73;;;;;;;;;;5099322;28;20468;-69
2021/11/20 04:25:48;;;;;;;26.20;12.20;;;;;;;;;;5099164;28;20450;-71
2021/11/20 04:28:17;;;;;;;29.93;12.30;;;;;;;;;;5098240;28;20462;-70
2021/11/20 04:30:46;;;;;;;29.93;12.37;;;;;;;;;;5098049;28;20461;-70
2021/11/20 04:33:15;;;;;;;28.63;12.70;;;;;;;;;;5096288;28;20491;-70
2021/11/20 04:35:43;;;;;;;27.50;12.93;;;;;;;;;;5097700;28;20944;-70
2021/11/20 04:38:12;;;;;;;24.77;12.00;;;;;;;;;;5097415;28;20466;-70
2021/11/20 04:40:40;;;;;;;32.83;13.03;;;;;;;;;;5097649;28;20444;-70
2021/11/20 04:43:08;;;;;;;26.27;12.17;;;;;;;;;;5097296;28;20471;-71
2021/11/20 04:45:36;;;;;;;30.47;12.70;;;;;;;;;;5097701;28;20438;-70
2021/11/20 04:48:05;;;;;;;22.43;11.37;;;;;;;;;;5094818;28;20459;-70
2021/11/20 04:50:35;;;;;;;28.53;12.63;;;;;;;;;;5097650;28;20434;-70
2021/11/20 04:53:03;;;;;;;29.50;12.03;;;;;;;;;;5093889;28;20447;-70
2021/11/20 04:55:31;;;;;;;26.33;11.77;;;;;;;;;;5096984;28;20442;-70
2021/11/20 04:57:59;;;;;;;29.80;13.30;;;;;;;;;;5096587;28;20469;-70
2021/11/20 05:00:29;;;;;;;24.00;11.10;;;;;;;;;;5096659;28;20486;-70
2021/11/20 05:02:57;;;;;;;23.70;11.97;;;;;;;;;;5096617;28;20819;-70
2021/11/20 05:05:25;;;;;;;22.23;11.03;;;;;;;;;;5095210;28;20436;-70
2021/11/20 05:07:55;;;;;;;24.80;12.00;;;;;;;;;;5096891;28;20443;-70
2021/11/20 05:10:23;;;;;;;26.00;12.17;;;;;;;;;;5095331;28;20462;-70
2021/11/20 05:12:51;;;;;;;26.53;12.23;;;;;;;;;;5095719;28;20530;-70
2021/11/20 05:15:19;;;;;;;25.07;12.70;;;;;;;;;;5095201;28;20877;-70
2021/11/20 05:17:47;;;;;;;20.37;10.70;;;;;;;;;;5096630;28;20809;-70
2021/11/20 05:20:15;;;;;;;26.13;12.87;;;;;;;;;;5094029;28;20478;-70
2021/11/20 05:22:43;;;;;;;29.93;12.40;;;;;;;;;;5096635;28;20442;-70
2021/11/20 05:25:14;;;;;;;25.90;12.00;;;;;;;;;;5096783;28;20432;-70
2021/11/20 05:27:43;;;;;;;27.17;11.67;;;;;;;;;;5096382;28;20431;-70
2021/11/20 05:30:15;;;;;;;26.23;11.50;;;;;;;;;;5096502;28;20431;-70
2021/11/20 05:32:44;;;;;;;26.07;12.83;;;;;;;;;;5096849;28;20515;-70
2021/11/20 05:35:12;;;;;;;27.43;12.03;;;;;;;;;;5096828;28;20515;-70
2021/11/20 05:37:40;;;;;;;24.80;11.53;;;;;;;;;;5095996;28;20930;-70
2021/11/20 05:40:13;;;;;;;29.50;11.93;;;;;;;;;;5096252;28;20995;-70
2021/11/20 05:42:42;;;;;;;29.13;11.97;;;;;;;;;;5094908;28;20502;-70
2021/11/20 05:45:10;;;;;;;22.73;11.00;;;;;;;;;;5096406;28;20467;-70
2021/11/20 05:47:38;;;;;;;26.57;11.07;;;;;;;;;;5096446;28;20436;-71
2021/11/20 05:50:08;;;;;;;24.83;11.60;;;;;;;;;;5096195;28;20446;-70
2021/11/20 05:52:36;;;;;;;25.63;11.60;;;;;;;;;;5094246;28;20438;-70
2021/11/20 05:55:04;;;;;;;31.27;12.87;;;;;;;;;;5096514;28;20459;-70
2021/11/20 05:57:32;;;;;;;27.40;12.10;;;;;;;;;;5096523;28;20439;-70
2021/11/20 06:00:02;;;;;;;25.17;12.30;;;;;;;;;;5095840;28;20479;-70
2021/11/20 06:02:29;;;;;;;25.57;11.47;;;;;;;;;;5096189;28;20481;-70
2021/11/20 06:04:57;;;;;;;24.97;11.73;;;;;;;;;;5095939;28;20616;-70
2021/11/20 06:07:25;;;;;;;28.50;13.97;;;;;;;;;;5096863;28;20446;-70
2021/11/20 06:09:53;;;;;;;24.47;11.60;;;;;;;;;;5097048;28;20468;-70
2021/11/20 06:12:21;;;;;;;27.43;13.33;;;;;;;;;;5097387;28;20946;-70
2021/11/20 06:14:49;;;;;;;25.33;12.13;;;;;;;;;;5092388;28;20451;-70
2021/11/20 06:17:19;;;;;;;28.00;13.47;;;;;;;;;;5082595;28;20448;-70
2021/11/20 06:19:47;;;;;;;32.50;12.83;;;;;;;;;;5083541;28;20476;-70
2021/11/20 06:22:17;;;;;;;34.13;14.10;;;;;;;;;;5084164;28;20443;-70
2021/11/20 06:24:45;;;;;;;29.07;13.83;;;;;;;;;;5086403;28;20437;-70
2021/11/20 06:27:13;;;;;;;35.47;12.63;;;;;;;;;;5083146;28;20442;-70
2021/11/20 06:29:41;;;;;;;29.10;13.73;;;;;;;;;;5085158;28;20790;-70
2021/11/20 06:32:09;;;;;;;35.97;14.33;;;;;;;;;;5083119;28;20523;-70
2021/11/20 06:34:38;;;;;;;27.63;13.20;;;;;;;;;;5087294;28;20441;-70
2021/11/20 06:37:06;;;;;;;32.40;12.83;;;;;;;;;;5094049;28;20446;-70
2021/11/20 06:39:35;;;;;;;31.43;13.07;;;;;;;;;;5103889;28;20471;-70
2021/11/20 06:42:05;;;;;;;35.57;13.47;;;;;;;;;;5104509;28;20443;-70
2021/11/20 06:44:34;;;;;;;24.23;11.60;;;;;;;;;;5106992;28;21253;-70
2021/11/20 06:47:02;;;;;;;28.33;12.33;;;;;;;;;;5105539;28;20462;-70
2021/11/20 06:49:30;;;;;;;31.27;13.67;;;;;;;;;;5103617;28;21004;-71
2021/11/20 06:52:00;;;;;;;31.50;14.73;;;;;;;;;;5107548;28;20445;-71
2021/11/20 06:54:29;;;;;;;29.47;13.33;;;;;;;;;;5102495;28;20522;-69
2021/11/20 06:57:05;;;;;;;29.23;12.90;;;;;;;;;;5100633;28;20522;-70
2021/11/20 07:02:23;;;;;;;27.03;12.80;;;;;;;;;;5108479;28;20442;-69
2021/11/20 07:04:51;;;;;;;27.27;11.90;;;;;;;;;;5105370;28;20443;-70
2021/11/20 07:07:20;;;;;;;28.30;11.90;;;;;;;;;;5100566;28;20435;-70
2021/11/20 07:09:49;;;;;;;24.77;12.27;;;;;;;;;;5100387;28;21041;-70
2021/11/20 07:12:17;;;;;;;30.70;13.73;;;;;;;;;;5098472;28;20450;-69
2021/11/20 07:14:45;;;;;;;32.00;12.80;;;;;;;;;;5100258;28;20526;-69
2021/11/20 07:17:13;;;;;;;32.20;13.37;;;;;;;;;;5094367;28;20522;-69
2021/11/20 07:19:41;;;;;;;30.33;12.43;;;;;;;;;;5100459;28;20467;-70
2021/11/20 07:22:09;;;;;;;27.00;11.40;;;;;;;;;;5100582;28;20444;-70
2021/11/20 07:24:39;;;;;;;34.10;14.27;;;;;;;;;;5100655;28;20457;-70
2021/11/20 07:27:07;;;;;;;25.77;11.73;;;;;;;;;;5100447;28;20449;-70
2021/11/20 07:29:34;;;;;;;25.33;11.67;;;;;;;;;;5100255;28;20535;-70
2021/11/20 07:32:03;;;;;;;29.57;11.00;;;;;;;;;;5100465;28;20554;-69
2021/11/20 07:34:31;;;;;;;28.30;12.10;;;;;;;;;;5107908;28;20518;-70
2021/11/20 07:36:59;;;;;;;27.23;12.33;;;;;;;;;;5105851;28;20868;-69
2021/11/20 07:39:28;;;;;;;29.20;11.40;;;;;;;;;;5108196;28;20465;-69
2021/11/20 07:41:57;;;;;;;27.33;12.47;;;;;;;;;;5109038;28;20478;-69
2021/11/20 07:44:26;;;;;;;27.57;13.10;;;;;;;;;;5109568;28;20491;-69
2021/11/20 07:46:54;;;;;;;29.17;12.60;;;;;;;;;;5105494;28;20436;-69
2021/11/20 07:49:22;;;;;;;28.67;12.77;;;;;;;;;;5099858;28;20463;-69
2021/11/20 07:51:50;;;;;;;25.00;11.77;;;;;;;;;;5088535;28;20462;-68
2021/11/20 07:54:19;;;;;;;25.57;12.20;;;;;;;;;;5096693;28;20435;-69
2021/11/20 07:56:47;;;;;;;27.37;12.23;;;;;;;;;;5105957;28;20778;-70
2021/11/20 07:59:16;;;;;;;31.50;13.73;;;;;;;;;;5109507;28;20965;-71
2021/11/20 08:01:45;;;;;;;28.27;13.80;;;;;;;;;;5107429;28;20549;-71
2021/11/20 08:04:14;;;;;;;27.57;12.33;;;;;;;;;;5108343;28;20579;-70
2021/11/20 08:06:42;;;;;;;23.27;10.77;;;;;;;;;;5103232;28;20440;-71
2021/11/20 08:09:11;;;;;;;29.73;12.90;;;;;;;;;;5109506;28;20501;-71
2021/11/20 08:11:39;;;;;;;28.33;12.93;;;;;;;;;;5105191;28;20446;-72
2021/11/20 08:14:08;;;;;;;22.53;11.27;;;;;;;;;;5107220;28;20533;-72
2021/11/20 08:16:38;;;;;;;24.03;11.67;;;;;;;;;;5109155;28;20456;-72
2021/11/20 08:19:07;;;;;;;30.17;12.27;;;;;;;;;;5106241;28;20461;-72
2021/11/20 08:21:36;;;;;;;26.77;12.53;;;;;;;;;;5109356;28;20483;-72
2021/11/20 08:24:04;;;;;;;26.00;11.27;;;;;;;;;;5099248;28;20446;-70
2021/11/20 08:26:36;;;;;;;28.93;14.00;;;;;;;;;;5109140;28;20952;-70
2021/11/20 08:29:05;;;;;;;26.23;13.43;;;;;;;;;;5108743;28;20217;-70
2021/11/20 08:31:34;;;;;;;28.90;13.63;;;;;;;;;;5098327;28;20281;-69
2021/11/20 08:34:04;;;;;;;30.80;12.57;;;;;;;;;;5098940;28;20458;-70
2021/11/20 08:36:32;;;;;;;26.93;12.90;;;;;;;;;;5098701;28;20805;-70
2021/11/20 08:39:00;;;;;;;27.83;12.40;;;;;;;;;;5098553;28;20461;-69
2021/11/20 08:41:28;;;;;;;27.23;11.60;;;;;;;;;;5085310;28;20570;-70
2021/11/20 08:43:56;;;;;;;31.30;14.00;;;;;;;;;;5098244;28;20475;-69
2021/11/20 08:46:24;;;;;;;28.50;13.40;;;;;;;;;;5096633;28;21058;-69
2021/11/20 08:48:52;;;;;;;32.20;12.73;;;;;;;;;;5104411;28;20460;-69
2021/11/20 08:51:22;;;;;;;27.43;13.00;;;;;;;;;;5106223;28;20514;-69
2021/11/20 08:53:51;;;;;;;29.73;13.13;;;;;;;;;;5103860;28;20930;-69
2021/11/20 08:56:19;;;;;;;28.03;12.37;;;;;;;;;;5099796;28;20436;-69
2021/11/20 08:58:48;;;;;;;26.47;12.73;;;;;;;;;;5098178;28;20460;-69
2021/11/20 09:01:18;;;;;;;29.27;13.33;;;;;;;;;;5098308;28;20571;-69
2021/11/20 09:03:48;;;;;;;36.17;13.97;;;;;;;;;;5108882;28;20511;-70
2021/11/20 09:06:19;;;;;;;28.53;12.27;;;;;;;;;;5106663;28;20501;-70
2021/11/20 09:08:50;;;;;;;22.10;11.10;;;;;;;;;;5099151;28;20487;-69
2021/11/20 09:11:20;;;;;;;27.97;12.67;;;;;;;;;;5105697;28;20443;-70
2021/11/20 09:13:51;;;;;;;27.30;12.93;;;;;;;;;;5104532;28;20544;-70
2021/11/20 09:16:20;;;;;;;28.03;13.53;;;;;;;;;;5105398;28;20455;-69
2021/11/20 09:18:48;;;;;;;28.50;13.00;;;;;;;;;;5103155;28;20757;-70
2021/11/20 09:21:17;;;;;;;26.20;13.20;;;;;;;;;;5103157;28;20547;-69
2021/11/20 09:23:46;;;;;;;33.37;13.00;;;;;;;;;;5101764;28;20545;-69
2021/11/20 09:26:16;;;;;;;29.77;13.00;;;;;;;;;;5106369;28;20255;-69
2021/11/20 09:28:56;;;;;;;27.73;12.47;;;;;;;;;;5102897;28;20217;-69
2021/11/20 09:31:25;;;;;;;31.67;12.87;;;;;;;;;;5097107;28;20632;-69
2021/11/20 09:33:56;;;;;;;28.37;13.17;;;;;;;;;;5093041;28;20206;-70
2021/11/20 09:36:24;;;;;;;31.03;13.47;;;;;;;;;;5103894;28;20495;-69
2021/11/20 09:38:52;;;;;;;30.40;12.90;;;;;;;;;;5105645;28;20462;-70
2021/11/20 09:41:23;;;;;;;24.10;11.80;;;;;;;;;;5105429;28;20225;-69
2021/11/20 09:43:53;;;;;;;22.50;12.13;;;;;;;;;;5097144;28;20245;-69
2021/11/20 09:46:23;;;;;;;25.97;12.23;;;;;;;;;;5097302;28;20205;-69
2021/11/20 09:48:52;;;;;;;26.53;12.50;;;;;;;;;;5097539;28;20236;-69
2021/11/20 09:51:25;;;;;;;28.00;12.40;;;;;;;;;;5097613;28;20208;-70
2021/11/20 09:53:54;;;;;;;26.60;12.87;;;;;;;;;;5099970;28;20201;-69
2021/11/20 09:56:24;;;;;;;24.60;13.27;;;;;;;;;;5083721;28;20206;-69
2021/11/20 09:58:53;;;;;;;26.20;12.90;;;;;;;;;;5087588;28;20244;-69
2021/11/20 10:01:25;;;;;;;23.77;11.77;;;;;;;;;;5085234;28;20229;-69
2021/11/20 10:04:06;;;;;;;25.70;12.83;;;;;;;;;;5084739;28;20210;-69
2021/11/20 10:06:35;;;;;;;28.03;13.40;;;;;;;;;;5084161;28;20275;-69
2021/11/20 10:09:20;;;;;;;30.03;13.23;;;;;;;;;;5084925;28;20275;-69
2021/11/20 10:11:55;;;;;;;28.70;13.23;;;;;;;;;;5087028;28;20190;-69
2021/11/20 10:14:30;;;;;;;31.07;14.30;;;;;;;;;;5102406;28;20676;-70
2021/11/20 10:17:18;;;;;;;30.57;13.57;;;;;;;;;;5104106;28;20205;-68
2021/11/20 10:19:49;;;;;;;33.00;14.33;;;;;;;;;;5103798;28;20463;-69
2021/11/20 10:22:19;;;;;;;35.30;14.77;;;;;;;;;;5099707;28;20481;-68
2021/11/20 10:24:50;;;;;;;31.53;14.33;;;;;;;;;;5106008;28;20466;-67
2021/11/20 10:27:44;;;;;;;30.63;13.30;;;;;;;;;;5109673;28;20504;-68
2021/11/20 10:30:27;;;;;;;28.83;13.70;;;;;;;;;;5112477;28;20438;-69
2021/11/20 10:32:57;;;;;;;34.83;14.23;;;;;;;;;;5098917;28;20451;-71
2021/11/20 10:35:26;;;;;;;35.33;15.80;;;;;;;;;;5101068;28;20445;-70
2021/11/20 10:38:04;;;;;;;34.43;13.83;;;;;;;;;;5100896;28;20448;-71
2021/11/20 10:40:36;;;;;;;37.30;14.20;;;;;;;;;;5099403;28;20450;-70
2021/11/20 10:43:07;;;;;;;33.23;14.87;;;;;;;;;;5100676;28;20513;-70
2021/11/20 10:45:38;;;;;;;32.03;13.33;;;;;;;;;;5099584;28;20518;-70
2021/11/20 10:48:11;;;;;;;32.43;13.30;;;;;;;;;;5100970;28;20474;-70
2021/11/20 10:50:41;;;;;;;28.07;12.80;;;;;;;;;;5100863;28;20458;-70
2021/11/20 10:53:24;;;;;;;27.77;13.30;;;;;;;;;;5101107;28;20526;-71
2021/11/20 10:56:02;;;;;;;28.30;12.90;;;;;;;;;;5100630;28;20522;-71
2021/11/20 10:58:42;;;;;;;34.97;15.23;;;;;;;;;;5099986;28;20223;-70
2021/11/20 11:01:28;;;;;;;38.00;15.57;;;;;;;;;;5101045;28;20209;-71
2021/11/20 11:03:59;;;;;;;33.07;13.77;;;;;;;;;;5100719;28;20449;-71
2021/11/20 11:06:37;;;;;;;30.30;14.03;;;;;;;;;;5100697;28;20524;-71
2021/11/20 11:09:14;;;;;;;24.87;12.37;;;;;;;;;;5100679;28;20233;-71
2021/11/20 11:11:43;;;;;;;29.77;13.43;;;;;;;;;;5096631;28;20550;-71
2021/11/20 11:14:23;;;;;;;33.53;14.23;;;;;;;;;;5100198;28;20210;-70
2021/11/20 11:16:54;;;;;;;29.33;13.27;;;;;;;;;;5100486;28;20204;-72
2021/11/20 11:19:45;;;;;;;30.57;13.73;;;;;;;;;;5100531;28;20301;-72
2021/11/20 11:22:18;;;;;;;28.53;12.83;;;;;;;;;;5100106;28;20236;-70
2021/11/20 11:25:03;;;;;;;27.60;14.30;;;;;;;;;;5100280;28;20691;-70
2021/11/20 11:27:35;;;;;;;30.20;13.70;;;;;;;;;;5102103;28;20205;-69
2021/11/20 11:30:09;;;;;;;27.73;13.80;;;;;;;;;;5108734;28;20201;-69
2021/11/20 11:32:38;;;;;;;32.80;14.77;;;;;;;;;;5087016;28;20201;-70
2021/11/20 11:35:09;;;;;;;31.17;14.23;;;;;;;;;;5086334;28;20206;-70
2021/11/20 11:37:42;;;;;;;28.50;13.47;;;;;;;;;;5085122;28;20316;-70
2021/11/20 11:40:16;;;;;;;29.93;13.90;;;;;;;;;;5086700;28;20285;-69
2021/11/20 11:42:47;;;;;;;32.97;14.30;;;;;;;;;;5086482;28;20515;-69
2021/11/20 11:45:29;;;;;;;27.27;12.93;;;;;;;;;;5086619;28;20206;-68
2021/11/20 11:47:58;;;;;;;30.90;14.37;;;;;;;;;;5086658;28;20209;-69
2021/11/20 11:50:46;;;;;;;26.60;12.20;;;;;;;;;;5084255;28;20198;-69
2021/11/20 11:53:29;;;;;;;30.37;12.67;;;;;;;;;;5086117;28;20198;-70
2021/11/20 11:55:58;;;;;;;28.23;13.20;;;;;;;;;;5085614;28;20209;-69
2021/11/20 11:58:36;;;;;;;27.67;12.70;;;;;;;;;;5086051;28;20738;-70
2021/11/20 12:01:07;;;;;;;30.53;13.70;;;;;;;;;;5083876;28;20202;-71
2021/11/20 12:03:36;;;;;;;25.37;12.43;;;;;;;;;;5085340;28;20253;-71
2021/11/20 12:06:32;;;;;;;29.00;13.60;;;;;;;;;;5084586;28;20202;-70
2021/11/20 12:09:01;;;;;;;30.00;14.63;;;;;;;;;;5085849;28;20225;-69
2021/11/20 12:11:33;;;;;;;31.50;13.60;;;;;;;;;;5085868;28;20451;-71
2021/11/20 12:14:09;;;;;;;32.60;13.60;;;;;;;;;;5084219;28;20437;-71
2021/11/20 12:16:58;;;;;;;24.90;12.67;;;;;;;;;;5087779;28;20199;-71
2021/11/20 12:19:40;;;;;;;27.93;12.70;;;;;;;;;;5081595;28;20224;-73
2021/11/20 12:22:19;;;;;;;25.10;12.83;;;;;;;;;;5083299;28;20206;-72
2021/11/20 12:24:56;;;;;;;29.53;13.73;;;;;;;;;;5086327;28;20202;-71
2021/11/20 12:27:30;;;;;;;30.23;14.00;;;;;;;;;;5094365;28;20945;-71
2021/11/20 12:30:16;;;;;;;32.03;14.93;;;;;;;;;;5098410;28;20218;-71
2021/11/20 12:32:55;;;;;;;27.10;13.93;;;;;;;;;;5098864;28;20206;-71
2021/11/20 12:35:30;;;;;;;25.57;12.87;;;;;;;;;;5097970;28;20201;-71
2021/11/20 12:38:07;;;;;;;28.03;13.67;;;;;;;;;;5098742;28;20692;-71
2021/11/20 12:40:38;;;;;;;28.60;13.60;;;;;;;;;;5096936;28;20209;-71
2021/11/20 12:43:14;;;;;;;26.77;13.50;;;;;;;;;;5098143;28;20245;-71
2021/11/20 12:45:59;;;;;;;30.87;13.87;;;;;;;;;;5096849;28;20261;-71
2021/11/20 12:48:42;;;;;;;29.33;15.40;;;;;;;;;;5098220;28;20848;-71
2021/11/20 12:51:24;;;;;;;30.80;14.23;;;;;;;;;;5098355;28;20583;-70
2021/11/20 12:53:54;;;;;;;22.37;12.87;;;;;;;;;;5098386;28;20568;-69
2021/11/20 12:56:29;;;;;;;27.20;13.60;;;;;;;;;;5098605;28;20240;-67
2021/11/20 12:58:57;;;;;;;29.87;14.77;;;;;;;;;;5097948;28;20787;-66
2021/11/20 13:01:27;;;;;;;27.80;14.33;;;;;;;;;;5098196;28;20676;-67
2021/11/20 13:04:06;;;;;;;32.13;15.50;;;;;;;;;;5098179;28;20236;-66
2021/11/20 13:06:38;;;;;;;31.73;14.90;;;;;;;;;;5084670;28;20206;-68
2021/11/20 13:09:08;;;;;;;33.37;14.87;;;;;;;;;;5098423;28;20225;-67
2021/11/20 13:11:38;;;;;;;31.07;14.47;;;;;;;;;;5093357;28;20205;-68
2021/11/20 13:14:09;;;;;;;30.70;14.03;;;;;;;;;;5098421;28;20285;-67
2021/11/20 13:16:58;;;;;;;30.00;13.93;;;;;;;;;;5098159;28;20194;-68
2021/11/20 13:19:45;;;;;;;27.57;13.67;;;;;;;;;;5097144;28;20667;-68
2021/11/20 13:22:16;;;;;;;32.30;15.23;;;;;;;;;;5098466;28;20679;-66
2021/11/20 13:24:47;;;;;;;28.37;14.43;;;;;;;;;;5097964;28;20235;-67
2021/11/20 13:27:33;;;;;;;30.67;15.20;;;;;;;;;;5098349;28;20205;-66
2021/11/20 13:30:03;;;;;;;28.13;13.50;;;;;;;;;;5097866;28;20749;-67
2021/11/20 13:32:31;;;;;;;31.20;14.87;;;;;;;;;;5098127;28;20209;-70
2021/11/20 13:34:59;;;;;;;25.10;13.63;;;;;;;;;;5097847;28;20568;-69
2021/11/20 13:37:27;;;;;;;27.03;13.37;;;;;;;;;;5098085;28;20209;-68
2021/11/20 13:39:55;;;;;;;28.73;13.73;;;;;;;;;;5097656;28;20228;-67
2021/11/20 13:42:40;;;;;;;26.47;14.37;;;;;;;;;;5096483;28;20236;-66
2021/11/20 13:45:10;;;;;;;26.73;13.00;;;;;;;;;;5097377;28;20217;-67
2021/11/20 13:47:38;;;;;;;27.77;13.10;;;;;;;;;;5097232;28;20193;-67
2021/11/20 13:50:06;;;;;;;22.53;13.73;;;;;;;;;;5094430;28;20204;-67
2021/11/20 13:52:34;;;;;;;29.40;14.40;;;;;;;;;;5097627;28;20197;-67
2021/11/20 13:55:07;;;;;;;28.90;15.40;;;;;;;;;;5097494;28;20202;-67
2021/11/20 13:57:36;;;;;;;27.40;15.37;;;;;;;;;;5096802;28;20539;-67
2021/11/20 14:00:06;;;;;;;31.27;15.87;;;;;;;;;;5096690;28;20205;-66
2021/11/20 14:02:35;;;;;;;27.97;13.80;;;;;;;;;;5096665;28;20229;-67
2021/11/20 14:05:04;;;;;;;27.50;14.63;;;;;;;;;;5095274;28;20225;-67
2021/11/20 14:07:35;;;;;;;30.37;15.23;;;;;;;;;;5096493;28;20271;-70
2021/11/20 14:10:09;;;;;;;31.80;14.90;;;;;;;;;;5093829;28;20207;-69
2021/11/20 14:12:39;;;;;;;27.50;13.90;;;;;;;;;;5095848;28;20651;-70
2021/11/20 14:15:09;;;;;;;24.53;13.40;;;;;;;;;;5096363;28;20735;-70
2021/11/20 14:17:39;;;;;;;25.17;13.30;;;;;;;;;;5091425;28;20229;-68
2021/11/20 14:20:08;;;;;;;25.43;13.40;;;;;;;;;;5095446;28;20201;-68
2021/11/20 14:22:37;;;;;;;32.90;14.93;;;;;;;;;;5097224;28;20679;-69
2021/11/20 14:25:08;;;;;;;28.10;13.40;;;;;;;;;;5097079;28;20223;-69
2021/11/20 14:27:36;;;;;;;28.60;16.00;;;;;;;;;;5096811;28;20201;-68
2021/11/20 14:30:04;;;;;;;30.93;15.13;;;;;;;;;;5097108;28;20204;-69
2021/11/20 14:32:33;;;;;;;27.77;14.20;;;;;;;;;;5096971;28;20194;-68
2021/11/20 14:35:07;;;;;;;29.37;13.50;;;;;;;;;;5096777;28;20280;-68
2021/11/20 14:37:35;;;;;;;26.47;14.73;;;;;;;;;;5095664;28;20205;-69
2021/11/20 14:40:07;;;;;;;28.13;15.20;;;;;;;;;;5096916;28;20673;-70